TimeCST,TemperatureF,Dew PointF,Humidity,Sea Level PressureIn,VisibilityMPH,Wind Direction,Wind SpeedMPH,Gust SpeedMPH,PrecipitationIn,Events,Conditions,WindDirDegrees,DateUTC
12:30 AM,42.8,37.4,81,29.89,10.0,NW,9.2,-,N/A,,Overcast,310,2012-11-07 06:30:00
12:37 AM,42.8,37.4,81,29.89,10.0,NW,6.9,-,N/A,,Overcast,310,2012-11-07 06:37:00
12:52 AM,42.1,37.9,85,29.91,10.0,NW,8.1,-,N/A,,Overcast,310,2012-11-07 06:52:00
12:59 AM,42.8,37.4,81,29.90,10.0,NW,6.9,-,N/A,,Overcast,310,2012-11-07 06:59:00
1:52 AM,41.0,37.9,89,29.92,10.0,NW,8.1,-,0.00,,Overcast,320,2012-11-07 07:52:00
2:52 AM,41.0,37.9,89,29.94,9.0,North,4.6,-,N/A,,Overcast,360,2012-11-07 08:52:00
3:23 AM,41.0,37.4,87,29.93,10.0,North,3.5,-,N/A,,Overcast,360,2012-11-07 09:23:00
3:52 AM,41.0,37.0,86,29.95,10.0,North,3.5,-,N/A,,Overcast,360,2012-11-07 09:52:00
4:52 AM,39.2,35.6,87,29.96,10.0,NNW,5.8,-,N/A,,Scattered Clouds,340,2012-11-07 10:52:00
5:52 AM,37.9,36.0,93,30.01,9.0,NNW,6.9,-,N/A,,Clear,340,2012-11-07 11:52:00
6:08 AM,39.2,35.6,87,30.00,9.0,North,8.1,-,N/A,,Mostly Cloudy,360,2012-11-07 12:08:00
6:52 AM,39.0,36.0,89,30.04,10.0,North,8.1,-,N/A,,Overcast,350,2012-11-07 12:52:00
7:32 AM,39.2,35.6,87,30.05,10.0,North,8.1,-,N/A,,Overcast,10,2012-11-07 13:32:00
7:52 AM,39.9,36.0,86,30.07,10.0,North,8.1,-,N/A,,Overcast,360,2012-11-07 13:52:00
8:52 AM,39.9,36.0,86,30.10,10.0,NNE,9.2,-,N/A,,Overcast,20,2012-11-07 14:52:00
9:52 AM,39.9,35.1,83,30.12,10.0,NNE,9.2,-,N/A,,Overcast,30,2012-11-07 15:52:00
10:52 AM,39.9,35.1,83,30.13,10.0,NNE,4.6,-,N/A,,Overcast,20,2012-11-07 16:52:00
11:49 AM,41.0,35.6,81,30.12,10.0,NW,6.9,-,N/A,,Overcast,320,2012-11-07 17:49:00
11:52 AM,41.0,36.0,82,30.13,10.0,NW,9.2,-,N/A,,Overcast,310,2012-11-07 17:52:00
12:52 PM,43.0,36.0,76,30.12,10.0,NNW,8.1,-,N/A,,Overcast,330,2012-11-07 18:52:00
1:52 PM,44.1,35.1,71,30.12,10.0,North,3.5,-,N/A,,Overcast,350,2012-11-07 19:52:00
2:52 PM,44.1,34.0,68,30.12,10.0,WNW,5.8,-,N/A,,Overcast,290,2012-11-07 20:52:00
3:52 PM,43.0,34.0,71,30.14,10.0,WNW,4.6,-,N/A,,Overcast,290,2012-11-07 21:52:00
4:52 PM,43.0,33.1,68,30.14,10.0,WNW,4.6,-,N/A,,Overcast,300,2012-11-07 22:52:00
5:52 PM,43.0,34.0,71,30.15,10.0,Calm,Calm,-,N/A,,Overcast,0,2012-11-07 23:52:00
6:42 PM,42.8,35.6,76,30.14,10.0,Calm,Calm,-,N/A,,Overcast,0,2012-11-08 00:42:00
6:52 PM,42.1,34.0,73,30.16,10.0,Calm,Calm,-,N/A,,Overcast,0,2012-11-08 00:52:00
7:52 PM,41.0,35.1,79,30.16,10.0,Calm,Calm,-,N/A,,Overcast,0,2012-11-08 01:52:00
8:52 PM,41.0,35.1,79,30.18,10.0,Calm,Calm,-,N/A,,Overcast,0,2012-11-08 02:52:00
9:52 PM,39.9,36.0,86,30.18,10.0,Calm,Calm,-,N/A,,Overcast,0,2012-11-08 03:52:00
10:52 PM,41.0,35.1,79,30.17,10.0,South,4.6,-,N/A,,Overcast,180,2012-11-08 04:52:00
11:52 PM,39.9,35.1,83,30.18,10.0,SSW,3.5,-,N/A,,Overcast,200,2012-11-08 05:52:00